Time;durP1;ratioP1;P1;durP2;ratioP2;P2;SDS_P1;SDS_P2;PMS_P1;PMS_P2;Temp;Humidity;BMP_temperature;BMP_pressure;BME280_temperature;BME280_humidity;BME280_pressure;Samples;Min_cycle;Max_cycle;Signal;HPM_P1;HPM_P2
2022/04/20 00:01:20;;;;;;;7.93;3.40;;;;;;;;;;5023721;28;20545;-57
2022/04/20 00:03:46;;;;;;;7.40;3.33;;;;;;;;;;5023976;28;20037;-57
2022/04/20 00:06:12;;;;;;;13.00;3.67;;;;;;;;;;5023656;28;20049;-57
2022/04/20 00:08:39;;;;;;;6.45;3.60;;;;;;;;;;5022685;28;20046;-57
2022/04/20 00:11:05;;;;;;;7.15;3.40;;;;;;;;;;5023380;28;20042;-56
2022/04/20 00:13:31;;;;;;;6.15;3.40;;;;;;;;;;5023074;28;20471;-57
2022/04/20 00:15:58;;;;;;;8.20;3.20;;;;;;;;;;5024137;28;20034;-57
2022/04/20 00:18:24;;;;;;;30.65;4.97;;;;;;;;;;5023755;28;20046;-57
2022/04/20 00:20:50;;;;;;;8.90;3.35;;;;;;;;;;5023585;28;20132;-55
2022/04/20 00:23:16;;;;;;;9.88;3.67;;;;;;;;;;5022695;28;20033;-57
2022/04/20 00:25:43;;;;;;;7.78;3.75;;;;;;;;;;5023845;28;20490;-57
2022/04/20 00:28:09;;;;;;;4.93;3.00;;;;;;;;;;5023463;28;20048;-56
2022/04/20 00:30:35;;;;;;;7.90;3.55;;;;;;;;;;5005417;28;20044;-57
2022/04/20 00:33:01;;;;;;;9.35;3.33;;;;;;;;;;5019495;28;20121;-57
2022/04/20 00:35:27;;;;;;;7.00;3.75;;;;;;;;;;5023939;28;20041;-57
2022/04/20 00:37:54;;;;;;;7.10;3.25;;;;;;;;;;5022128;28;20073;-57
2022/04/20 00:40:20;;;;;;;12.02;3.58;;;;;;;;;;5023542;28;20095;-57
2022/04/20 00:42:48;;;;;;;8.82;3.95;;;;;;;;;;5019374;28;20049;-56
2022/04/20 00:45:14;;;;;;;9.18;3.50;;;;;;;;;;5024170;28;20042;-57
2022/04/20 00:47:44;;;;;;;6.20;3.05;;;;;;;;;;5026940;28;20502;-57
2022/04/20 00:50:11;;;;;;;9.40;4.50;;;;;;;;;;5026890;28;20077;-57
2022/04/20 00:52:37;;;;;;;6.75;3.20;;;;;;;;;;5026705;28;20120;-57
2022/04/20 00:55:04;;;;;;;11.43;3.90;;;;;;;;;;5025556;28;20045;-57
2022/04/20 00:57:30;;;;;;;7.28;3.45;;;;;;;;;;5026492;28;20060;-57
2022/04/20 00:59:57;;;;;;;10.18;3.95;;;;;;;;;;5027157;28;20041;-57
2022/04/20 01:02:23;;;;;;;8.25;3.53;;;;;;;;;;5025938;28;20119;-57
2022/04/20 01:04:50;;;;;;;7.35;3.95;;;;;;;;;;5008415;28;20052;-55
2022/04/20 01:07:17;;;;;;;8.60;3.58;;;;;;;;;;5025817;28;20050;-58
2022/04/20 01:09:44;;;;;;;6.32;3.17;;;;;;;;;;5025569;28;20530;-57
2022/04/20 01:12:11;;;;;;;10.40;4.43;;;;;;;;;;5042873;23;20267;-57
2022/04/20 01:14:37;;;;;;;11.27;3.72;;;;;;;;;;5046597;28;20183;-56
2022/04/20 01:17:04;;;;;;;9.55;4.10;;;;;;;;;;5050974;28;20037;-57
2022/04/20 01:19:36;;;;;;;9.48;4.10;;;;;;;;;;5047233;28;20052;-58
2022/04/20 01:22:02;;;;;;;10.23;3.30;;;;;;;;;;5046716;28;20037;-57
2022/04/20 01:24:29;;;;;;;6.72;3.78;;;;;;;;;;5046269;28;20116;-57
2022/04/20 01:26:56;;;;;;;6.43;3.88;;;;;;;;;;5065075;28;20043;-57
2022/04/20 01:29:22;;;;;;;11.40;3.88;;;;;;;;;;5065606;28;20082;-57
2022/04/20 01:31:49;;;;;;;7.75;3.92;;;;;;;;;;5065093;28;20556;-57
2022/04/20 01:34:15;;;;;;;9.48;3.88;;;;;;;;;;5054090;28;20055;-57
2022/04/20 01:36:41;;;;;;;7.32;3.97;;;;;;;;;;5064695;28;20195;-57
2022/04/20 01:39:07;;;;;;;17.40;3.85;;;;;;;;;;5057958;28;20067;-57
2022/04/20 01:41:33;;;;;;;8.23;3.75;;;;;;;;;;5046208;28;20037;-57
2022/04/20 01:44:00;;;;;;;6.38;3.30;;;;;;;;;;5046656;28;20052;-56
2022/04/20 01:46:26;;;;;;;7.50;3.60;;;;;;;;;;5064717;28;20059;-57
2022/04/20 01:48:52;;;;;;;9.07;3.97;;;;;;;;;;5064837;28;20505;-57
2022/04/20 01:54:03;;;;;;;5.90;3.38;;;;;;;;;;5041471;28;20076;-57
2022/04/20 01:56:29;;;;;;;7.32;4.00;;;;;;;;;;5064781;28;20033;-57
2022/04/20 01:58:55;;;;;;;8.60;3.88;;;;;;;;;;5065222;28;20048;-57
2022/04/20 02:04:06;;;;;;;7.22;3.50;;;;;;;;;;5061766;28;20049;-57
2022/04/20 02:06:33;;;;;;;7.18;3.88;;;;;;;;;;5046203;28;20041;-57
2022/04/20 02:08:59;;;;;;;7.38;3.90;;;;;;;;;;5045594;28;20080;-57
2022/04/20 02:11:25;;;;;;;10.30;4.25;;;;;;;;;;5045690;28;20091;-57
2022/04/20 02:13:51;;;;;;;8.02;4.40;;;;;;;;;;5048307;28;20116;-57
2022/04/20 02:16:18;;;;;;;8.18;4.10;;;;;;;;;;5064610;28;20059;-57
2022/04/20 02:18:44;;;;;;;10.15;4.30;;;;;;;;;;5064043;28;20551;-57
2022/04/20 02:21:10;;;;;;;7.50;3.97;;;;;;;;;;5064648;28;20070;-57
2022/04/20 02:23:36;;;;;;;7.05;3.60;;;;;;;;;;5061225;28;20044;-57
2022/04/20 02:26:02;;;;;;;8.18;3.85;;;;;;;;;;5045764;28;20047;-57
2022/04/20 02:28:28;;;;;;;8.27;4.60;;;;;;;;;;5045966;28;20033;-55
2022/04/20 02:30:54;;;;;;;10.10;3.95;;;;;;;;;;5044650;28;20045;-57
2022/04/20 02:33:20;;;;;;;7.47;3.97;;;;;;;;;;5047216;28;20049;-57
2022/04/20 02:35:47;;;;;;;7.35;3.92;;;;;;;;;;5063640;28;20037;-57
2022/04/20 02:38:14;;;;;;;7.88;4.22;;;;;;;;;;5063711;28;20046;-57
2022/04/20 02:40:41;;;;;;;7.95;4.22;;;;;;;;;;5041352;28;20041;-57
2022/04/20 02:43:07;;;;;;;6.68;3.95;;;;;;;;;;5047099;28;20478;-57
2022/04/20 02:45:34;;;;;;;9.35;4.18;;;;;;;;;;5063325;28;20119;-57
2022/04/20 02:48:00;;;;;;;12.90;4.30;;;;;;;;;;5045810;28;20094;-57
2022/04/20 02:50:27;;;;;;;8.05;4.07;;;;;;;;;;5064116;28;20052;-57
2022/04/20 02:52:54;;;;;;;9.35;4.60;;;;;;;;;;5061604;28;20071;-57
2022/04/20 02:55:20;;;;;;;9.02;4.28;;;;;;;;;;5044891;28;20582;-57
2022/04/20 02:57:47;;;;;;;8.13;3.75;;;;;;;;;;5044617;28;20470;-57
2022/04/20 03:00:13;;;;;;;8.25;3.85;;;;;;;;;;5026044;28;20044;-57
2022/04/20 03:02:39;;;;;;;8.20;3.63;;;;;;;;;;5045650;28;20045;-57
2022/04/20 03:05:05;;;;;;;6.88;3.72;;;;;;;;;;5063624;28;20047;-57
2022/04/20 03:07:32;;;;;;;8.00;4.13;;;;;;;;;;5058595;28;20470;-57
2022/04/20 03:09:58;;;;;;;7.13;3.88;;;;;;;;;;5040070;28;20052;-57
2022/04/20 03:12:24;;;;;;;7.35;4.13;;;;;;;;;;5061799;28;20052;-57
2022/04/20 03:14:54;;;;;;;6.55;3.78;;;;;;;;;;5044493;28;20053;-57
2022/04/20 03:17:21;;;;;;;7.13;3.90;;;;;;;;;;5043183;28;20045;-57
2022/04/20 03:19:47;;;;;;;8.55;4.28;;;;;;;;;;5044625;28;20048;-57
2022/04/20 03:22:13;;;;;;;10.27;4.18;;;;;;;;;;5045336;28;20510;-57
2022/04/20 03:24:40;;;;;;;6.82;3.60;;;;;;;;;;5062051;28;20051;-57
2022/04/20 03:27:06;;;;;;;9.88;3.92;;;;;;;;;;5062766;28;20032;-57
2022/04/20 03:29:32;;;;;;;9.13;3.88;;;;;;;;;;5063296;28;20056;-57
2022/04/20 03:31:58;;;;;;;6.72;3.63;;;;;;;;;;5062576;28;20174;-57
2022/04/20 03:34:24;;;;;;;9.98;3.95;;;;;;;;;;5044812;28;20091;-57
2022/04/20 03:36:50;;;;;;;10.25;3.80;;;;;;;;;;5044484;28;20124;-57
2022/04/20 03:39:17;;;;;;;8.38;4.15;;;;;;;;;;5044919;28;20048;-57
2022/04/20 03:41:43;;;;;;;6.35;3.15;;;;;;;;;;5044539;28;20482;-57
2022/04/20 03:44:09;;;;;;;7.90;4.25;;;;;;;;;;5062835;28;20036;-57
2022/04/20 03:46:35;;;;;;;9.25;3.72;;;;;;;;;;5045095;28;20033;-57
2022/04/20 03:49:01;;;;;;;9.48;4.25;;;;;;;;;;5044579;28;20091;-57
2022/04/20 03:51:28;;;;;;;10.05;4.15;;;;;;;;;;5044965;28;20490;-57
2022/04/20 03:53:54;;;;;;;17.77;4.40;;;;;;;;;;5061928;28;20436;-57
2022/04/20 03:56:20;;;;;;;7.70;3.75;;;;;;;;;;5052597;28;20091;-57
2022/04/20 03:58:46;;;;;;;8.52;3.85;;;;;;;;;;5044052;28;20048;-57
2022/04/20 04:01:12;;;;;;;7.28;4.03;;;;;;;;;;5045499;28;20037;-57
2022/04/20 04:03:39;;;;;;;7.88;4.47;;;;;;;;;;5043636;28;20076;-57
2022/04/20 04:06:06;;;;;;;12.43;3.90;;;;;;;;;;5044300;28;20048;-57
2022/04/20 04:08:32;;;;;;;7.95;3.85;;;;;;;;;;5043446;28;20111;-57
2022/04/20 04:10:58;;;;;;;9.27;4.40;;;;;;;;;;5058244;28;20083;-57
2022/04/20 04:13:24;;;;;;;9.98;4.63;;;;;;;;;;5061570;28;20041;-57
2022/04/20 04:15:50;;;;;;;15.63;4.85;;;;;;;;;;5062216;28;20363;-57
2022/04/20 04:18:17;;;;;;;7.22;4.40;;;;;;;;;;5063094;28;20073;-57
2022/04/20 04:20:43;;;;;;;8.93;4.68;;;;;;;;;;5049854;28;20127;-57
2022/04/20 04:23:09;;;;;;;8.50;4.43;;;;;;;;;;5046753;28;20047;-57
2022/04/20 04:25:35;;;;;;;9.23;4.70;;;;;;;;;;5047939;28;20052;-57
2022/04/20 04:28:02;;;;;;;16.00;5.47;;;;;;;;;;5058054;28;20683;-57
2022/04/20 04:30:29;;;;;;;10.48;4.63;;;;;;;;;;5065731;28;20052;-57
2022/04/20 04:32:55;;;;;;;10.55;5.30;;;;;;;;;;5066669;28;20098;-57
2022/04/20 04:35:21;;;;;;;8.38;4.38;;;;;;;;;;5066215;28;20036;-57
2022/04/20 04:37:47;;;;;;;7.45;4.15;;;;;;;;;;5047410;28;20568;-57
2022/04/20 04:40:14;;;;;;;8.90;4.78;;;;;;;;;;5051455;28;20053;-57
2022/04/20 04:42:40;;;;;;;10.98;4.35;;;;;;;;;;5047538;28;20041;-57
2022/04/20 04:50:37;;;;;;;10.43;4.70;;;;;;;;;;5065598;28;20036;-57
2022/04/20 04:53:03;;;;;;;6.82;4.00;;;;;;;;;;5064068;28;20052;-57
2022/04/20 04:55:29;;;;;;;9.00;4.30;;;;;;;;;;5066130;28;20509;-57
2022/04/20 04:57:55;;;;;;;8.50;4.65;;;;;;;;;;5067088;28;20430;-57
2022/04/20 05:00:22;;;;;;;8.27;4.03;;;;;;;;;;5047312;28;20048;-57
2022/04/20 05:02:48;;;;;;;10.73;4.28;;;;;;;;;;5045901;28;20045;-57
2022/04/20 05:05:14;;;;;;;9.43;5.50;;;;;;;;;;5047132;28;20060;-57
2022/04/20 05:07:40;;;;;;;9.32;4.45;;;;;;;;;;5046228;28;20504;-57
2022/04/20 05:10:07;;;;;;;12.38;4.80;;;;;;;;;;5055300;28;20052;-57
2022/04/20 05:12:35;;;;;;;9.20;4.80;;;;;;;;;;5046400;28;20045;-58
2022/04/20 05:15:01;;;;;;;13.02;4.13;;;;;;;;;;5042621;28;20041;-57
2022/04/20 05:17:27;;;;;;;9.98;4.68;;;;;;;;;;5049000;28;20807;-55
2022/04/20 05:19:53;;;;;;;9.93;4.50;;;;;;;;;;5047125;28;20048;-57
2022/04/20 05:22:20;;;;;;;7.07;3.88;;;;;;;;;;5046134;28;20132;-57
2022/04/20 05:24:46;;;;;;;7.65;3.85;;;;;;;;;;5046892;28;20180;-57
2022/04/20 05:27:13;;;;;;;10.63;4.07;;;;;;;;;;5047719;28;20409;-57
2022/04/20 05:29:39;;;;;;;8.50;4.47;;;;;;;;;;5058614;28;20116;-57
2022/04/20 05:32:06;;;;;;;7.13;3.80;;;;;;;;;;5041106;28;20119;-57
2022/04/20 05:34:33;;;;;;;9.27;4.20;;;;;;;;;;5041638;28;20037;-57
2022/04/20 05:42:29;;;;;;;8.48;3.88;;;;;;;;;;5044112;28;20659;-57
2022/04/20 05:44:55;;;;;;;13.05;4.25;;;;;;;;;;5047334;28;20045;-57
2022/04/20 05:47:21;;;;;;;10.05;4.72;;;;;;;;;;5050706;28;20036;-57
2022/04/20 05:49:47;;;;;;;7.93;4.07;;;;;;;;;;5064862;28;20041;-56
2022/04/20 05:52:14;;;;;;;11.40;4.93;;;;;;;;;;5062508;28;20048;-57
2022/04/20 05:54:40;;;;;;;10.40;4.50;;;;;;;;;;5045494;28;20127;-58
2022/04/20 05:57:06;;;;;;;7.07;3.90;;;;;;;;;;5050047;28;20040;-57
2022/04/20 05:59:32;;;;;;;9.80;3.80;;;;;;;;;;5063998;28;20044;-57
2022/04/20 06:01:58;;;;;;;9.10;3.92;;;;;;;;;;5063755;28;20064;-57
2022/04/20 06:04:25;;;;;;;11.77;4.28;;;;;;;;;;5054525;28;20037;-56
2022/04/20 06:06:51;;;;;;;15.10;4.47;;;;;;;;;;5043164;28;20521;-56
2022/04/20 06:09:18;;;;;;;7.85;4.20;;;;;;;;;;5045026;28;20119;-57
2022/04/20 06:11:45;;;;;;;10.13;3.78;;;;;;;;;;5044492;28;20482;-57
2022/04/20 06:14:11;;;;;;;5.68;3.25;;;;;;;;;;5046648;28;20059;-57
2022/04/20 06:16:37;;;;;;;8.32;3.72;;;;;;;;;;5048953;28;20068;-57
2022/04/20 06:19:03;;;;;;;8.38;4.03;;;;;;;;;;5064588;28;20048;-57
2022/04/20 06:21:29;;;;;;;5.45;3.25;;;;;;;;;;5064260;28;20090;-55
2022/04/20 06:23:56;;;;;;;8.85;3.70;;;;;;;;;;5062448;28;20044;-56
2022/04/20 06:26:22;;;;;;;11.45;4.75;;;;;;;;;;5060236;28;20044;-57
2022/04/20 06:28:48;;;;;;;5.72;3.38;;;;;;;;;;5040795;28;20147;-56
2022/04/20 06:31:14;;;;;;;7.40;3.60;;;;;;;;;;5046665;28;20049;-57
2022/04/20 06:33:40;;;;;;;8.65;3.78;;;;;;;;;;5051373;28;20048;-56
2022/04/20 06:36:07;;;;;;;8.70;3.85;;;;;;;;;;5052515;28;20439;-57
2022/04/20 06:38:33;;;;;;;6.93;3.80;;;;;;;;;;5044245;28;20044;-57
2022/04/20 06:40:59;;;;;;;5.45;3.33;;;;;;;;;;5045260;28;20124;-55
2022/04/20 06:43:25;;;;;;;6.20;2.88;;;;;;;;;;5045216;28;20084;-57
2022/04/20 06:45:52;;;;;;;8.20;2.97;;;;;;;;;;5049151;28;20049;-55
2022/04/20 06:48:18;;;;;;;8.45;3.28;;;;;;;;;;5045314;28;20044;-56
2022/04/20 06:50:44;;;;;;;6.50;3.67;;;;;;;;;;5044541;28;20466;-57
2022/04/20 06:58:41;;;;;;;6.50;2.95;;;;;;;;;;5063087;28;20052;-56
2022/04/20 07:01:08;;;;;;;7.68;3.55;;;;;;;;;;5063245;28;20177;-56
2022/04/20 07:03:36;;;;;;;8.70;3.25;;;;;;;;;;5059169;28;20094;-56
2022/04/20 07:06:03;;;;;;;6.82;3.55;;;;;;;;;;5052236;28;20484;-56
2022/04/20 07:08:30;;;;;;;7.97;3.33;;;;;;;;;;5061659;28;20079;-56
2022/04/20 07:10:57;;;;;;;6.85;3.53;;;;;;;;;;5063599;28;20695;-56
2022/04/20 07:13:23;;;;;;;8.57;3.85;;;;;;;;;;5063137;28;20074;-57
2022/04/20 07:15:49;;;;;;;5.53;3.45;;;;;;;;;;5055839;28;20045;-56
2022/04/20 07:18:16;;;;;;;13.23;3.45;;;;;;;;;;5056579;28;20045;-57
2022/04/20 07:20:42;;;;;;;7.20;3.75;;;;;;;;;;5044551;28;20439;-57
2022/04/20 07:23:10;;;;;;;8.48;3.38;;;;;;;;;;5043641;28;20080;-57
2022/04/20 07:25:36;;;;;;;4.80;3.08;;;;;;;;;;5051494;28;20127;-56
2022/04/20 07:28:04;;;;;;;6.18;3.60;;;;;;;;;;5062546;28;20041;-57
2022/04/20 07:30:30;;;;;;;7.47;3.37;;;;;;;;;;5061854;28;20056;-56
2022/04/20 07:32:56;;;;;;;7.88;3.05;;;;;;;;;;5058839;28;20530;-57
2022/04/20 07:35:22;;;;;;;6.85;2.88;;;;;;;;;;5050629;28;20040;-56
2022/04/20 07:37:49;;;;;;;5.22;3.03;;;;;;;;;;5026250;28;20101;-56
2022/04/20 07:40:15;;;;;;;6.95;2.80;;;;;;;;;;5044214;28;20135;-56
2022/04/20 07:42:41;;;;;;;4.32;2.88;;;;;;;;;;5043751;28;20045;-57
2022/04/20 07:45:08;;;;;;;6.80;3.00;;;;;;;;;;5050897;28;20043;-56
2022/04/20 07:47:34;;;;;;;8.20;2.38;;;;;;;;;;5062512;28;20089;-56
2022/04/20 07:50:19;;;;;;;6.20;2.65;;;;;;;;;;5062899;28;20036;-58
2022/04/20 07:52:47;;;;;;;4.50;2.58;;;;;;;;;;5061935;28;20078;-57
2022/04/20 07:55:14;;;;;;;5.80;2.53;;;;;;;;;;5053431;28;20049;-57
2022/04/20 07:57:43;;;;;;;9.02;2.67;;;;;;;;;;5047961;28;20407;-56
2022/04/20 08:00:10;;;;;;;10.18;2.50;;;;;;;;;;5055604;28;20047;-57
2022/04/20 08:02:36;;;;;;;10.30;2.60;;;;;;;;;;5066832;28;20036;-57
2022/04/20 08:05:02;;;;;;;4.80;2.60;;;;;;;;;;5056683;28;20080;-57
2022/04/20 08:07:28;;;;;;;4.20;2.50;;;;;;;;;;5047373;28;20540;-57
2022/04/20 08:09:55;;;;;;;6.60;2.28;;;;;;;;;;5047833;28;20041;-57
2022/04/20 08:12:23;;;;;;;5.22;2.13;;;;;;;;;;5047824;28;20087;-56
2022/04/20 08:14:51;;;;;;;6.22;3.25;;;;;;;;;;5057339;28;20312;-57
2022/04/20 08:17:17;;;;;;;5.20;2.65;;;;;;;;;;5066580;28;20483;-56
2022/04/20 08:19:43;;;;;;;6.07;2.38;;;;;;;;;;5066826;28;20081;-56
2022/04/20 08:22:10;;;;;;;7.40;2.85;;;;;;;;;;5065605;28;20051;-57
2022/04/20 08:24:36;;;;;;;5.00;2.20;;;;;;;;;;5064951;28;20040;-57
2022/04/20 08:27:02;;;;;;;6.00;2.20;;;;;;;;;;5066111;28;20032;-56
2022/04/20 08:29:28;;;;;;;4.07;2.20;;;;;;;;;;5067069;28;20041;-57
2022/04/20 08:31:54;;;;;;;3.78;2.17;;;;;;;;;;5066007;28;20127;-57
2022/04/20 08:34:20;;;;;;;4.68;2.60;;;;;;;;;;5055934;28;20045;-57
2022/04/20 08:36:47;;;;;;;14.25;1.88;;;;;;;;;;5046647;28;20484;-57
2022/04/20 08:39:13;;;;;;;4.40;1.63;;;;;;;;;;5047527;28;20134;-57
2022/04/20 08:41:40;;;;;;;4.95;1.73;;;;;;;;;;5046440;28;20119;-57
2022/04/20 08:44:08;;;;;;;4.68;1.70;;;;;;;;;;5057616;28;20048;-57
2022/04/20 08:46:37;;;;;;;5.50;2.00;;;;;;;;;;5065964;28;20557;-57
2022/04/20 08:49:04;;;;;;;5.05;1.92;;;;;;;;;;5065765;28;20040;-57
2022/04/20 08:52:37;;;;;;;3.60;1.65;;;;;;;;;;5065350;28;20040;-56
2022/04/20 08:54:18;;;;;;;5.07;2.00;;;;;;;;;;5052711;28;20111;-57
2022/04/20 08:59:30;;;;;;;3.42;1.40;;;;;;;;;;5046960;28;20052;-56
2022/04/20 09:01:58;;;;;;;3.00;1.30;;;;;;;;;;5066138;28;20080;-57
2022/04/20 09:04:24;;;;;;;4.60;1.50;;;;;;;;;;5050285;28;20048;-56
2022/04/20 09:06:51;;;;;;;5.68;1.45;;;;;;;;;;5041195;28;20175;-57
2022/04/20 09:09:18;;;;;;;3.65;1.67;;;;;;;;;;5046818;28;20040;-56
2022/04/20 09:11:46;;;;;;;8.00;2.00;;;;;;;;;;5046415;28;20053;-57
2022/04/20 09:14:13;;;;;;;9.45;1.65;;;;;;;;;;5062295;28;20135;-56
2022/04/20 09:16:41;;;;;;;3.57;1.30;;;;;;;;;;5065293;28;20124;-57
2022/04/20 09:19:08;;;;;;;6.32;1.58;;;;;;;;;;5065430;28;20041;-56
2022/04/20 09:21:34;;;;;;;4.68;1.52;;;;;;;;;;5064516;28;20055;-57
2022/04/20 09:24:05;;;;;;;7.55;1.30;;;;;;;;;;5049416;28;20090;-56
2022/04/20 09:26:32;;;;;;;1.83;0.90;;;;;;;;;;5046174;28;20041;-57
2022/04/20 09:29:05;;;;;;;2.85;1.00;;;;;;;;;;5047135;28;20143;-56
2022/04/20 09:31:43;;;;;;;3.90;0.98;;;;;;;;;;5046301;28;20055;-56
2022/04/20 09:34:09;;;;;;;4.38;1.30;;;;;;;;;;5064777;28;20085;-57
2022/04/20 09:36:45;;;;;;;3.28;1.20;;;;;;;;;;5063519;28;20643;-56
2022/04/20 09:39:13;;;;;;;2.80;1.05;;;;;;;;;;5039115;28;20048;-57
2022/04/20 09:41:55;;;;;;;2.88;1.13;;;;;;;;;;5064029;28;20041;-57
2022/04/20 09:44:22;;;;;;;3.15;1.27;;;;;;;;;;5046217;28;20055;-57
2022/04/20 09:49:37;;;;;;;4.20;1.33;;;;;;;;;;5046002;28;20829;-57
2022/04/20 09:52:10;;;;;;;2.30;1.20;;;;;;;;;;5050075;28;20044;-57
2022/04/20 09:54:37;;;;;;;3.78;1.23;;;;;;;;;;5063721;28;20040;-57
2022/04/20 09:57:13;;;;;;;3.90;1.50;;;;;;;;;;5064831;28;20040;-57
2022/04/20 10:00:09;;;;;;;3.78;1.45;;;;;;;;;;5044662;28;20558;-56
2022/04/20 10:02:38;;;;;;;5.65;1.60;;;;;;;;;;5045571;28;20115;-57
2022/04/20 10:05:04;;;;;;;4.32;1.40;;;;;;;;;;5050340;28;20090;-57
2022/04/20 10:07:31;;;;;;;5.15;1.17;;;;;;;;;;5063434;28;20044;-56
2022/04/20 10:09:58;;;;;;;4.00;1.23;;;;;;;;;;5040034;28;20115;-57
2022/04/20 10:12:24;;;;;;;3.50;1.30;;;;;;;;;;5045826;28;20057;-57
2022/04/20 10:17:41;;;;;;;4.15;1.55;;;;;;;;;;5044862;28;20094;-56
2022/04/20 10:20:07;;;;;;;3.88;1.50;;;;;;;;;;5054825;28;20037;-56
2022/04/20 10:22:34;;;;;;;3.13;1.20;;;;;;;;;;5063140;28;20406;-58
2022/04/20 10:25:01;;;;;;;5.10;1.30;;;;;;;;;;5064756;28;20033;-57
2022/04/20 10:27:30;;;;;;;3.35;1.58;;;;;;;;;;5064787;28;20044;-57
2022/04/20 10:29:58;;;;;;;3.63;1.35;;;;;;;;;;5054487;28;20044;-57
2022/04/20 10:32:25;;;;;;;4.90;1.30;;;;;;;;;;5045606;28;20052;-57
2022/04/20 10:34:52;;;;;;;3.05;1.23;;;;;;;;;;5044580;28;20037;-57
2022/04/20 10:37:21;;;;;;;5.28;2.00;;;;;;;;;;5044542;28;20044;-57
2022/04/20 10:39:47;;;;;;;6.95;1.52;;;;;;;;;;5054995;28;20075;-56
2022/04/20 10:42:16;;;;;;;4.60;1.40;;;;;;;;;;5058724;28;20052;-56
2022/04/20 10:45:01;;;;;;;2.70;1.55;;;;;;;;;;5044935;28;20044;-57
2022/04/20 10:47:29;;;;;;;3.50;1.48;;;;;;;;;;5045306;28;20063;-57
2022/04/20 10:50:11;;;;;;;5.30;1.53;;;;;;;;;;5057278;28;20390;-57
2022/04/20 10:52:37;;;;;;;6.60;1.95;;;;;;;;;;5062885;28;20147;-57
2022/04/20 10:55:04;;;;;;;3.92;1.20;;;;;;;;;;5053116;28;20072;-57
2022/04/20 10:57:34;;;;;;;3.10;1.48;;;;;;;;;;5063148;28;20052;-57
2022/04/20 11:00:22;;;;;;;3.00;1.45;;;;;;;;;;5048055;28;20037;-57
2022/04/20 11:02:56;;;;;;;12.23;1.70;;;;;;;;;;5044285;28;20042;-57
2022/04/20 11:05:22;;;;;;;4.60;1.80;;;;;;;;;;5046230;28;20040;-57
2022/04/20 11:08:03;;;;;;;6.65;1.80;;;;;;;;;;5043516;28;20040;-57
2022/04/20 11:10:30;;;;;;;3.58;1.90;;;;;;;;;;5063819;28;20140;-57
2022/04/20 11:19:04;;;;;;;2.67;1.25;;;;;;;;;;5038129;28;20041;-56
2022/04/20 11:21:30;;;;;;;4.57;1.48;;;;;;;;;;5041231;28;20080;-57
2022/04/20 11:23:58;;;;;;;4.05;2.70;;;;;;;;;;5040039;28;20087;-56
2022/04/20 11:26:28;;;;;;;4.25;1.83;;;;;;;;;;5042337;28;20453;-57
2022/04/20 11:28:54;;;;;;;5.68;1.30;;;;;;;;;;5041200;28;20703;-57
2022/04/20 11:31:20;;;;;;;6.35;1.58;;;;;;;;;;5039089;28;20145;-56
2022/04/20 11:33:47;;;;;;;4.55;1.58;;;;;;;;;;5042913;28;20552;-57
2022/04/20 11:36:14;;;;;;;2.78;1.55;;;;;;;;;;5040799;28;20898;-57
2022/04/20 11:38:41;;;;;;;3.13;1.48;;;;;;;;;;5036485;28;20041;-57
2022/04/20 11:41:09;;;;;;;3.38;0.98;;;;;;;;;;5040291;28;20639;-57
2022/04/20 11:43:36;;;;;;;2.95;1.27;;;;;;;;;;5048979;28;20037;-57
2022/04/20 11:46:04;;;;;;;2.60;1.40;;;;;;;;;;5052947;28;20554;-57
2022/04/20 11:48:30;;;;;;;3.03;1.30;;;;;;;;;;5050551;28;20041;-58
2022/04/20 11:50:57;;;;;;;2.20;1.35;;;;;;;;;;5051097;28;20036;-57
2022/04/20 11:53:35;;;;;;;5.30;1.30;;;;;;;;;;5049598;28;20038;-57
2022/04/20 11:56:02;;;;;;;3.55;1.33;;;;;;;;;;5042820;28;20037;-58
2022/04/20 11:58:28;;;;;;;3.30;1.38;;;;;;;;;;5057363;28;20098;-57
2022/04/20 12:01:01;;;;;;;3.03;1.67;;;;;;;;;;5062841;28;20044;-57
2022/04/20 12:03:30;;;;;;;4.65;1.20;;;;;;;;;;5033787;28;20498;-58
2022/04/20 12:06:02;;;;;;;2.00;1.23;;;;;;;;;;5042637;28;20094;-59
2022/04/20 12:08:29;;;;;;;4.32;1.50;;;;;;;;;;5055935;28;20032;-57
2022/04/20 12:10:55;;;;;;;3.58;1.30;;;;;;;;;;5044320;28;20131;-57
2022/04/20 12:13:26;;;;;;;3.30;1.75;;;;;;;;;;5045072;28;20052;-57
2022/04/20 12:16:00;;;;;;;3.83;1.35;;;;;;;;;;5042045;28;20091;-57
2022/04/20 12:18:27;;;;;;;7.82;1.58;;;;;;;;;;5056179;28;20518;-57
2022/04/20 12:20:53;;;;;;;1.85;1.10;;;;;;;;;;5039468;28;20037;-58
2022/04/20 12:23:20;;;;;;;3.80;1.25;;;;;;;;;;5040188;28;20037;-57
2022/04/20 12:25:53;;;;;;;2.88;1.60;;;;;;;;;;5043837;28;20037;-57
2022/04/20 12:28:35;;;;;;;3.53;1.30;;;;;;;;;;5052227;28;20049;-57
2022/04/20 12:31:02;;;;;;;2.35;1.20;;;;;;;;;;5043119;28;20049;-58
2022/04/20 12:33:29;;;;;;;2.30;1.25;;;;;;;;;;5046182;28;20041;-57
2022/04/20 12:36:00;;;;;;;4.10;1.25;;;;;;;;;;5061944;28;20119;-57
2022/04/20 12:38:26;;;;;;;3.78;1.45;;;;;;;;;;5044277;28;20041;-58
2022/04/20 12:40:53;;;;;;;3.78;1.27;;;;;;;;;;5040579;28;20037;-57
2022/04/20 12:43:19;;;;;;;3.20;1.17;;;;;;;;;;5043135;28;20478;-57
2022/04/20 12:45:45;;;;;;;4.57;1.20;;;;;;;;;;5045732;28;20037;-57
2022/04/20 12:48:11;;;;;;;1.73;1.00;;;;;;;;;;5045561;28;20041;-57
2022/04/20 12:50:38;;;;;;;3.08;1.30;;;;;;;;;;5049432;28;20044;-57
2022/04/20 12:53:05;;;;;;;2.70;1.30;;;;;;;;;;5063076;28;20043;-58
2022/04/20 12:55:35;;;;;;;3.35;1.17;;;;;;;;;;5057212;28;20073;-58
2022/04/20 13:03:35;;;;;;;2.13;1.20;;;;;;;;;;5056758;28;20040;-57
2022/04/20 13:06:01;;;;;;;2.17;1.00;;;;;;;;;;5055122;28;20056;-58
2022/04/20 13:08:27;;;;;;;3.05;0.98;;;;;;;;;;5044996;28;20147;-57
2022/04/20 13:10:53;;;;;;;2.65;1.27;;;;;;;;;;5047774;28;20119;-57
2022/04/20 13:13:25;;;;;;;5.03;1.40;;;;;;;;;;5047335;28;20037;-57
2022/04/20 13:15:51;;;;;;;3.72;1.17;;;;;;;;;;5044823;28;20052;-57
2022/04/20 13:18:17;;;;;;;1.83;1.02;;;;;;;;;;5065753;28;20112;-57
2022/04/20 13:20:45;;;;;;;3.50;1.33;;;;;;;;;;5045821;28;20094;-58
2022/04/20 13:23:11;;;;;;;4.10;1.17;;;;;;;;;;5046330;28;20053;-58
2022/04/20 13:28:22;;;;;;;3.70;1.30;;;;;;;;;;5044986;28;20037;-57
2022/04/20 13:30:49;;;;;;;18.33;2.22;;;;;;;;;;5027063;28;20536;-57
2022/04/20 13:33:16;;;;;;;3.55;1.40;;;;;;;;;;5046908;28;20049;-57
2022/04/20 13:35:43;;;;;;;22.90;2.78;;;;;;;;;;5053990;28;20048;-58
2022/04/20 13:38:10;;;;;;;4.88;1.88;;;;;;;;;;5064238;28;20036;-57
2022/04/20 13:40:38;;;;;;;2.28;1.33;;;;;;;;;;5064437;28;20052;-57
2022/04/20 13:43:04;;;;;;;4.70;2.05;;;;;;;;;;5065084;28;20111;-58
2022/04/20 13:45:31;;;;;;;7.75;1.67;;;;;;;;;;5026980;28;20041;-58
2022/04/20 13:47:57;;;;;;;5.38;1.85;;;;;;;;;;5047085;28;20043;-57
2022/04/20 13:50:23;;;;;;;4.10;1.60;;;;;;;;;;5029098;28;20502;-58
2022/04/20 13:52:50;;;;;;;3.83;1.63;;;;;;;;;;5042565;28;20041;-57
2022/04/20 13:55:16;;;;;;;4.82;1.80;;;;;;;;;;5053985;28;20048;-58
2022/04/20 13:57:42;;;;;;;6.68;1.85;;;;;;;;;;5064241;28;20489;-58
2022/04/20 14:00:09;;;;;;;3.30;1.73;;;;;;;;;;5054901;28;20040;-58
2022/04/20 14:02:36;;;;;;;4.07;2.00;;;;;;;;;;5046088;28;20079;-58
2022/04/20 14:05:03;;;;;;;3.97;1.67;;;;;;;;;;5038966;28;20167;-58
2022/04/20 14:07:29;;;;;;;2.30;1.60;;;;;;;;;;5045738;28;20482;-58
2022/04/20 14:09:55;;;;;;;2.97;1.60;;;;;;;;;;5045380;28;20077;-58
2022/04/20 14:12:24;;;;;;;4.53;1.80;;;;;;;;;;5064653;28;20124;-58
2022/04/20 14:14:51;;;;;;;7.13;1.67;;;;;;;;;;5056618;28;20053;-58
2022/04/20 14:17:18;;;;;;;7.38;2.00;;;;;;;;;;5045546;28;20037;-58
2022/04/20 14:19:45;;;;;;;3.45;2.50;;;;;;;;;;5045472;28;20139;-58
2022/04/20 14:22:13;;;;;;;3.05;1.83;;;;;;;;;;5041466;28;20048;-58
2022/04/20 14:24:40;;;;;;;3.95;2.00;;;;;;;;;;5037291;28;20041;-58
2022/04/20 14:32:35;;;;;;;2.83;1.88;;;;;;;;;;5044797;28;20049;-58
2022/04/20 14:35:02;;;;;;;3.83;2.00;;;;;;;;;;5047681;28;20049;-58
2022/04/20 14:37:28;;;;;;;3.63;1.70;;;;;;;;;;5045463;28;20033;-58
2022/04/20 14:39:54;;;;;;;14.98;2.67;;;;;;;;;;5044780;28;20059;-59
2022/04/20 14:42:21;;;;;;;4.97;2.10;;;;;;;;;;5045430;28;20072;-57
2022/04/20 14:44:47;;;;;;;6.43;2.30;;;;;;;;;;5056865;28;20052;-57
2022/04/20 14:47:13;;;;;;;7.05;1.98;;;;;;;;;;5064212;28;20045;-57
2022/04/20 14:49:40;;;;;;;11.25;2.50;;;;;;;;;;5063637;28;20640;-57
2022/04/20 14:52:09;;;;;;;5.32;2.15;;;;;;;;;;5063473;28;20068;-58
2022/04/20 14:54:36;;;;;;;3.88;2.00;;;;;;;;;;5050884;28;20035;-57
2022/04/20 14:57:02;;;;;;;2.83;2.22;;;;;;;;;;5060613;28;20554;-57
2022/04/20 14:59:28;;;;;;;3.53;1.83;;;;;;;;;;5064108;28;20045;-57
2022/04/20 15:01:54;;;;;;;6.00;1.77;;;;;;;;;;5063067;28;20036;-57
2022/04/20 15:04:21;;;;;;;6.30;1.90;;;;;;;;;;5062678;28;20135;-57
2022/04/20 15:06:50;;;;;;;6.03;2.17;;;;;;;;;;5062519;28;20043;-57
2022/04/20 15:09:16;;;;;;;5.32;2.05;;;;;;;;;;5045844;28;20387;-58
2022/04/20 15:11:45;;;;;;;2.97;2.05;;;;;;;;;;5063221;28;20040;-57
2022/04/20 15:14:11;;;;;;;3.65;2.13;;;;;;;;;;5062519;28;20505;-57
2022/04/20 15:16:38;;;;;;;5.07;1.80;;;;;;;;;;5063595;28;20033;-57
2022/04/20 15:19:04;;;;;;;3.65;2.05;;;;;;;;;;5063004;28;20136;-57
2022/04/20 15:21:31;;;;;;;3.95;1.60;;;;;;;;;;5054678;28;20047;-58
2022/04/20 15:23:57;;;;;;;3.80;2.03;;;;;;;;;;5045920;28;20048;-57
2022/04/20 15:26:23;;;;;;;4.70;2.10;;;;;;;;;;5040782;28;20131;-57
2022/04/20 15:28:52;;;;;;;5.95;1.83;;;;;;;;;;5043923;28;20544;-57
2022/04/20 15:31:18;;;;;;;5.22;1.90;;;;;;;;;;5036597;28;20045;-57